This is the latest recevied weather packets stored in our database for station/object WV6L-13. If no packets are shown the sender has not sent any weather packets the latest 10 day(s).
| Time | Temp. | Humidity | Pressure | Rain* | Wind** | Luminosity | Snow |
|---|---|---|---|---|---|---|---|
| 1777909193 | 16.67° C | 47% | 922.5 hPa | - | - | - | - |
| 1777908894 | 16.11° C | 47% | 922.4 hPa | - | - | - | - |
| 1777908294 | 16.11° C | 47% | 922.5 hPa | - | - | - | - |
| 1777907394 | 16.11° C | 49% | 922.6 hPa | - | - | - | - |
| 1777907093 | 15.56° C | 50% | 922.5 hPa | - | - | - | - |
| 1777906194 | 14.44° C | 53% | 922.5 hPa | - | - | - | - |
| 1777905893 | 14.44° C | 53% | 922.5 hPa | - | - | - | - |
| 1777905595 | 14.44° C | 54% | 922.5 hPa | - | - | - | - |
| 1777905293 | 14.44° C | 54% | 922.3 hPa | - | - | - | - |
| 1777901693 | 13.33° C | 57% | 921.7 hPa | - | - | - | - |
| 1777901093 | 13.33° C | 56% | 921.7 hPa | - | - | - | - |
| 1777900794 | 13.33° C | 56% | 921.9 hPa | - | - | - | - |
| 1777900494 | 13.33° C | 55% | 921.7 hPa | - | - | - | - |
| 1777899594 | 12.78° C | 56% | 921.8 hPa | - | - | - | - |
| 1777898993 | 12.78° C | 56% | 921.8 hPa | - | - | - | - |
| 1777898394 | 12.78° C | 56% | 921.5 hPa | - | - | - | - |
| 1777898093 | 12.78° C | 56% | 921.6 hPa | - | - | - | - |
| 1777897793 | 12.78° C | 56% | 921.4 hPa | - | - | - | - |
| 1777897494 | 12.78° C | 57% | 921.3 hPa | - | - | - | - |
| 1777897194 | 12.22° C | 58% | 921.4 hPa | - | - | - | - |
| 1777896894 | 11.67° C | 56% | 921.4 hPa | - | - | - | - |
| 1777896593 | 12.22° C | 54% | 921.2 hPa | - | - | - | - |
| 1777896294 | 12.78° C | 53% | 921.3 hPa | - | - | - | - |
| 1777895994 | 12.78° C | 54% | 921.5 hPa | - | - | - | - |
| 1777895694 | 12.22° C | 54% | 921.5 hPa | - | - | - | - |
* Rain since midnight (hover to see other rain measurements)
** Current wind speed in m/s (hover to see current wind gust speed)